TimeEST,TemperatureF,Dew PointF,Humidity,Sea Level PressureIn,VisibilityMPH,Wind Direction,Wind SpeedMPH,Gust SpeedMPH,PrecipitationIn,Events,Conditions,WindDirDegrees,DateUTC
12:15 AM,48.2,42.8,82,30.17,10.0,WNW,10.4,-,N/A,,Overcast,290,2013-01-07 05:15:00
12:35 AM,48.2,42.8,82,30.17,10.0,WNW,9.2,-,N/A,,Overcast,300,2013-01-07 05:35:00
12:55 AM,48.2,42.8,82,30.17,10.0,NW,9.2,-,N/A,,Mostly Cloudy,310,2013-01-07 05:55:00
1:15 AM,46.4,42.8,87,30.18,10.0,NW,8.1,-,N/A,,Partly Cloudy,310,2013-01-07 06:15:00
1:35 AM,46.4,42.8,87,30.18,10.0,NW,8.1,-,N/A,,Clear,310,2013-01-07 06:35:00
1:55 AM,46.4,42.8,87,30.19,10.0,NW,6.9,-,N/A,,Clear,320,2013-01-07 06:55:00
2:15 AM,46.4,42.8,87,30.19,10.0,NNW,9.2,-,N/A,,Mostly Cloudy,330,2013-01-07 07:15:00
2:35 AM,46.4,42.8,87,30.19,10.0,North,12.7,-,N/A,,Mostly Cloudy,350,2013-01-07 07:35:00
2:55 AM,44.6,42.8,93,30.20,10.0,North,11.5,-,N/A,,Partly Cloudy,350,2013-01-07 07:55:00
3:15 AM,42.8,39.2,87,30.21,10.0,North,9.2,-,N/A,,Clear,350,2013-01-07 08:15:00
3:35 AM,42.8,39.2,87,30.22,10.0,North,8.1,-,N/A,,Clear,350,2013-01-07 08:35:00
3:55 AM,42.8,39.2,87,30.22,10.0,NNW,6.9,-,N/A,,Clear,340,2013-01-07 08:55:00
4:15 AM,42.8,37.4,81,30.22,10.0,North,6.9,-,N/A,,Clear,350,2013-01-07 09:15:00
4:35 AM,39.2,37.4,93,30.22,10.0,North,5.8,-,N/A,,Clear,350,2013-01-07 09:35:00
4:55 AM,39.2,37.4,93,30.23,10.0,North,4.6,-,N/A,,Clear,360,2013-01-07 09:55:00
5:15 AM,37.4,35.6,93,30.24,9.0,NNW,3.5,-,N/A,,Clear,340,2013-01-07 10:15:00
5:35 AM,39.2,35.6,87,30.24,6.0,North,3.5,-,N/A,,Clear,350,2013-01-07 10:35:00
5:50 AM,37.4,35.6,93,30.26,10.0,Calm,Calm,-,N/A,Fog,Patches of Fog,0,2013-01-07 10:50:00
5:55 AM,37.4,35.6,93,30.26,7.0,NNW,4.6,-,N/A,,Clear,340,2013-01-07 10:55:00
6:45 AM,37.4,37.4,100,30.28,10.0,North,4.6,-,N/A,,Clear,360,2013-01-07 11:45:00
7:46 AM,37.4,35.6,93,30.31,10.0,North,8.1,-,N/A,,Clear,350,2013-01-07 12:46:00
8:45 AM,42.8,41.0,93,30.34,10.0,North,8.1,-,N/A,,Clear,10,2013-01-07 13:45:00
9:53 AM,48.2,37.4,66,30.38,10.0,NNE,11.5,-,N/A,,Clear,30,2013-01-07 14:53:00
10:50 AM,51.8,35.6,54,30.39,10.0,NE,15.0,-,N/A,,Clear,50,2013-01-07 15:50:00
11:55 AM,53.6,32.0,44,30.36,10.0,ENE,15.0,-,N/A,,Mostly Cloudy,60,2013-01-07 16:55:00
12:45 PM,53.6,30.2,41,30.35,10.0,NNE,12.7,-,N/A,,Mostly Cloudy,30,2013-01-07 17:45:00
1:45 PM,55.4,33.8,44,30.36,10.0,ENE,9.2,-,N/A,,Clear,60,2013-01-07 18:45:00
2:45 PM,53.6,33.8,47,30.37,10.0,ESE,13.8,-,N/A,,Clear,110,2013-01-07 19:45:00
3:45 PM,53.6,35.6,51,30.37,10.0,East,13.8,-,N/A,,Clear,100,2013-01-07 20:45:00
4:50 PM,51.8,37.4,58,30.38,10.0,East,11.5,-,N/A,,Clear,100,2013-01-07 21:50:00
6:50 PM,48.2,39.2,71,30.40,10.0,East,11.5,-,N/A,,Clear,90,2013-01-07 23:50:00
7:50 PM,48.2,-9999,N/A,30.40,10.0,ENE,11.5,-,N/A,,Clear,60,2013-01-08 00:50:00
8:50 PM,48.2,41.0,76,30.40,10.0,East,11.5,-,N/A,,Clear,80,2013-01-08 01:50:00
10:55 PM,42.8,39.2,87,30.39,10.0,North,8.1,-,N/A,,Scattered Clouds,360,2013-01-08 03:55:00
11:15 PM,44.6,39.2,81,30.39,10.0,NNE,5.8,-,N/A,,Overcast,30,2013-01-08 04:15:00
11:35 PM,44.6,39.2,81,30.38,10.0,NNE,6.9,-,N/A,,Overcast,20,2013-01-08 04:35:00
11:55 PM,46.4,39.2,76,30.38,10.0,North,6.9,-,N/A,,Overcast,10,2013-01-08 04:55:00